This is the latest recevied weather packets stored in our database for station/object SLG. If no packets are shown the sender has not sent any weather packets the latest 10 day(s).
| Time | Temp. | Humidity | Pressure | Rain* | Wind** | Luminosity | Snow |
|---|---|---|---|---|---|---|---|
| 1777471331 | 20.56° C | 31% | 1016.9 hPa | 0 mm | - | - | - |
| 1777469531 | 20.56° C | 32% | 1016.7 hPa | 0 mm | - | - | - |
| 1777467730 | 20° C | 32% | 1016.7 hPa | 0 mm | - | - | - |
| 1777465932 | 20.56° C | 32% | 1016.8 hPa | 0 mm | - | - | - |
| 1777464131 | 20° C | 36% | 1016.7 hPa | 0 mm | - | - | - |
| 1777462330 | 20° C | 38% | 1016.8 hPa | 0 mm | - | - | - |
| 1777460530 | 19.44° C | 39% | 1017 hPa | 0 mm | - | - | - |
| 1777458730 | 18.89° C | 40% | 1017.1 hPa | 0 mm | - | - | - |
| 1777456931 | 17.78° C | 44% | 1017.1 hPa | 0 mm | - | - | - |
| 1777455131 | 16.67° C | 45% | 1017.1 hPa | 0 mm | - | - | - |
| 1777453332 | 15° C | 49% | 1017.2 hPa | 0 mm | - | - | - |
| 1777451530 | 13.33° C | 53% | 1017.2 hPa | 0 mm | - | - | - |
| 1777449731 | 11.11° C | 58% | 1017.1 hPa | 0 mm | - | - | - |
| 1777447931 | 10° C | 61% | 1017 hPa | 0 mm | - | - | - |
| 1777446130 | 9.44° C | 64% | 1017 hPa | 0 mm | - | - | - |
| 1777444331 | 8.89° C | 65% | 1016.8 hPa | 0 mm | - | - | - |
| 1777442531 | 8.89° C | 63% | 1016.4 hPa | 0 mm | - | - | - |
| 1777440731 | 8.89° C | 64% | 1016.2 hPa | 0 mm | - | - | - |
| 1777438931 | 8.89° C | 63% | 1015.8 hPa | 0 mm | - | - | - |
| 1777437132 | 9.44° C | 61% | 1015.5 hPa | 0 mm | - | - | - |
| 1777435331 | 9.44° C | 59% | 1015.3 hPa | 0 mm | - | - | - |
| 1777433531 | 10° C | 59% | 1015.1 hPa | 0 mm | - | - | - |
| 1777431732 | 10° C | 58% | 1015.1 hPa | 0 mm | - | - | - |
| 1777429932 | 10.56° C | 57% | 1015 hPa | 0 mm | - | - | - |
| 1777428132 | 10.56° C | 57% | 1014.9 hPa | 0 mm | - | - | - |
* Rain since midnight (hover to see other rain measurements)
** Current wind speed in m/s (hover to see current wind gust speed)